createdAt,value
2024-01-11T00:00:11.142Z,-6.71
2024-01-11T00:02:13.007Z,-6.70
2024-01-11T00:04:15.327Z,-6.70
2024-01-11T00:06:17.229Z,-6.69
2024-01-11T00:08:19.016Z,-6.68
2024-01-11T00:10:21.526Z,-6.66
2024-01-11T00:12:23.282Z,-6.65
2024-01-11T00:14:25.075Z,-6.68
2024-01-11T00:16:27.682Z,-6.67
2024-01-11T00:18:29.800Z,-6.66
2024-01-11T00:20:31.642Z,-6.64
2024-01-11T00:22:33.517Z,-6.65
2024-01-11T00:24:39.435Z,-6.65
2024-01-11T00:26:42.931Z,-6.64
2024-01-11T00:28:44.698Z,-6.63
2024-01-11T00:30:46.470Z,-6.64
2024-01-11T00:32:48.443Z,-6.65
2024-01-11T00:34:50.275Z,-6.64
2024-01-11T00:36:51.991Z,-6.64
2024-01-11T00:38:53.780Z,-6.63
2024-01-11T00:40:55.522Z,-6.61
2024-01-11T00:42:57.296Z,-6.64
2024-01-11T00:44:59.066Z,-6.63
2024-01-11T00:47:00.811Z,-6.62
2024-01-11T00:49:02.723Z,-6.61
2024-01-11T00:51:08.349Z,-6.60
2024-01-11T00:53:10.775Z,-6.58
2024-01-11T00:55:12.587Z,-6.56
2024-01-11T00:57:14.319Z,-6.55
2024-01-11T00:59:16.149Z,-6.54
2024-01-11T01:01:18.018Z,-6.53
2024-01-11T01:03:21.003Z,-6.49
2024-01-11T01:05:22.868Z,-6.48
2024-01-11T01:07:24.695Z,-6.49
2024-01-11T01:09:26.433Z,-6.48
2024-01-11T01:11:28.258Z,-6.50
2024-01-11T01:13:29.995Z,-6.47
2024-01-11T01:15:31.727Z,-6.44
2024-01-11T01:17:33.529Z,-6.42
2024-01-11T01:19:35.336Z,-6.39
2024-01-11T01:21:37.125Z,-6.39
2024-01-11T01:23:39.194Z,-6.40
2024-01-11T01:25:40.967Z,-6.42
2024-01-11T01:27:42.738Z,-6.41
2024-01-11T01:29:44.518Z,-6.41
2024-01-11T01:31:46.254Z,-6.40
2024-01-11T01:33:48.154Z,-6.44
2024-01-11T01:35:50.162Z,-6.44
2024-01-11T01:37:51.949Z,-6.44
2024-01-11T01:39:53.769Z,-6.46
2024-01-11T01:41:55.483Z,-6.45
2024-01-11T01:43:57.232Z,-6.46
2024-01-11T01:45:59.967Z,-6.45
2024-01-11T01:48:02.805Z,-6.42
2024-01-11T01:50:05.642Z,-6.37
2024-01-11T01:52:08.796Z,-6.34
2024-01-11T01:54:10.908Z,-6.33
2024-01-11T01:56:13.851Z,-6.34
2024-01-11T01:58:16.905Z,-6.34
2024-01-11T02:00:19.436Z,-6.32
2024-01-11T02:02:22.945Z,-6.30
2024-01-11T02:04:25.056Z,-6.32
2024-01-11T02:06:28.644Z,-6.35
2024-01-11T02:08:31.972Z,-6.34
2024-01-11T02:10:34.306Z,-6.33
2024-01-11T02:12:39.235Z,-6.31
2024-01-11T02:14:41.871Z,-6.30
2024-01-11T02:16:43.663Z,-6.28
2024-01-11T02:18:45.552Z,-6.27
2024-01-11T02:20:47.550Z,-6.24
2024-01-11T02:22:57.514Z,-6.20
2024-01-11T02:24:59.802Z,-6.19
2024-01-11T02:27:06.317Z,-6.16
2024-01-11T02:29:08.125Z,-6.19
2024-01-11T02:31:09.961Z,-6.24
2024-01-11T02:33:12.478Z,-6.23
2024-01-11T02:35:19.638Z,-6.22
2024-01-11T02:37:22.093Z,-6.22
2024-01-11T02:39:26.024Z,-6.21
2024-01-11T02:41:29.245Z,-6.25
2024-01-11T02:43:31.007Z,-6.24
2024-01-11T02:45:32.801Z,-6.27
2024-01-11T02:47:34.638Z,-6.33
2024-01-11T02:49:37.620Z,-6.36
2024-01-11T02:51:39.627Z,-6.40
2024-01-11T02:53:41.568Z,-6.38
2024-01-11T02:55:43.412Z,-6.37
2024-01-11T02:57:45.379Z,-6.36
2024-01-11T02:59:47.104Z,-6.37
2024-01-11T03:01:48.911Z,-6.42
2024-01-11T03:03:52.807Z,-6.44
2024-01-11T03:05:55.083Z,-6.41
2024-01-11T03:07:57.068Z,-6.44
2024-01-11T03:09:58.877Z,-6.40
2024-01-11T03:12:00.724Z,-6.36
2024-01-11T03:14:04.082Z,-6.31
2024-01-11T03:16:06.663Z,-6.34
2024-01-11T03:18:08.822Z,-6.36
2024-01-11T03:20:11.248Z,-6.31
2024-01-11T03:22:13.589Z,-6.28
2024-01-11T03:24:15.390Z,-6.29
2024-01-11T03:26:18.318Z,-6.27
2024-01-11T03:28:20.143Z,-6.22
2024-01-11T03:30:21.999Z,-6.23
2024-01-11T03:32:24.110Z,-6.28
2024-01-11T03:34:26.028Z,-6.38
2024-01-11T03:36:27.840Z,-6.43
2024-01-11T03:38:29.639Z,-6.42
2024-01-11T03:40:31.365Z,-6.36
2024-01-11T03:42:33.177Z,-6.28
2024-01-11T03:44:34.964Z,-6.24
2024-01-11T03:46:36.674Z,-6.24
2024-01-11T03:48:38.612Z,-6.23
2024-01-11T03:50:40.695Z,-6.25
2024-01-11T03:52:43.646Z,-6.30
2024-01-11T03:54:45.552Z,-6.34
2024-01-11T03:56:47.323Z,-6.40
2024-01-11T03:58:49.131Z,-6.49
2024-01-11T04:00:51.539Z,-6.54
2024-01-11T04:02:53.323Z,-6.54
2024-01-11T04:04:55.363Z,-6.55
2024-01-11T04:06:57.102Z,-6.58
2024-01-11T04:08:59.179Z,-6.60
2024-01-11T04:11:04.670Z,-6.60
2024-01-11T04:13:08.596Z,-6.55
2024-01-11T04:15:13.408Z,-6.62
2024-01-11T04:17:15.297Z,-6.63
2024-01-11T04:19:18.790Z,-6.59
2024-01-11T04:21:29.656Z,-6.55
2024-01-11T04:23:31.863Z,-6.52
2024-01-11T04:25:33.719Z,-6.49
2024-01-11T04:27:35.446Z,-6.47
2024-01-11T04:29:37.208Z,-6.45
2024-01-11T04:31:38.982Z,-6.44
2024-01-11T04:33:47.677Z,-6.49
2024-01-11T04:35:49.594Z,-6.53
2024-01-11T04:37:51.700Z,-6.54
2024-01-11T04:39:53.421Z,-6.52
2024-01-11T04:41:55.132Z,-6.55
2024-01-11T04:43:56.860Z,-6.52
2024-01-11T04:45:58.675Z,-6.54
2024-01-11T04:48:00.545Z,-6.49
2024-01-11T04:50:02.485Z,-6.47
2024-01-11T04:52:04.796Z,-6.45
2024-01-11T04:54:06.733Z,-6.46
2024-01-11T04:56:09.637Z,-6.46
2024-01-11T04:58:11.541Z,-6.45
2024-01-11T05:00:13.803Z,-6.47
2024-01-11T05:02:15.565Z,-6.44
2024-01-11T05:04:17.285Z,-6.40
2024-01-11T05:06:19.988Z,-6.34
2024-01-11T05:08:21.944Z,-6.32
2024-01-11T05:10:23.737Z,-6.34
2024-01-11T05:12:25.559Z,-6.37
2024-01-11T05:14:27.318Z,-6.37
2024-01-11T05:16:29.923Z,-6.37
2024-01-11T05:18:35.012Z,-6.37
2024-01-11T05:20:37.380Z,-6.31
2024-01-11T05:22:39.133Z,-6.31
2024-01-11T05:24:41.242Z,-6.32
2024-01-11T05:26:43.093Z,-6.34
2024-01-11T05:28:45.492Z,-6.36
2024-01-11T05:30:50.538Z,-6.34
2024-01-11T05:32:52.398Z,-6.30
2024-01-11T05:34:54.205Z,-6.26
2024-01-11T05:36:56.159Z,-6.22
2024-01-11T05:38:58.363Z,-6.23
2024-01-11T05:41:00.323Z,-6.23
2024-01-11T05:43:02.121Z,-6.21
2024-01-11T05:45:05.182Z,-6.19
2024-01-11T05:47:06.936Z,-6.16
2024-01-11T05:49:09.042Z,-6.19
2024-01-11T05:51:11.111Z,-6.19
2024-01-11T05:53:13.744Z,-6.22
2024-01-11T05:55:15.613Z,-6.23
2024-01-11T05:57:18.024Z,-6.22
2024-01-11T05:59:19.819Z,-6.22
2024-01-11T06:01:22.848Z,-6.24
2024-01-11T06:03:24.703Z,-6.22
2024-01-11T06:05:27.199Z,-6.21
2024-01-11T06:07:29.495Z,-6.18
2024-01-11T06:09:31.316Z,-6.11
2024-01-11T06:11:33.531Z,-6.10
2024-01-11T06:13:35.302Z,-6.11
2024-01-11T06:15:37.021Z,-6.07
2024-01-11T06:17:39.053Z,-6.04
2024-01-11T06:19:40.840Z,-5.98
2024-01-11T06:21:42.602Z,-5.93
2024-01-11T06:23:48.391Z,-5.91
2024-01-11T06:25:50.348Z,-5.90
2024-01-11T06:27:52.185Z,-5.91
2024-01-11T06:29:54.301Z,-5.88
2024-01-11T06:31:56.204Z,-5.83
2024-01-11T06:33:57.990Z,-5.76
2024-01-11T06:35:59.998Z,-5.70
2024-01-11T06:38:02.189Z,-5.65
2024-01-11T06:40:04.997Z,-5.63
2024-01-11T06:42:07.914Z,-5.57
2024-01-11T06:44:10.282Z,-5.56
2024-01-11T06:46:12.121Z,-5.51
2024-01-11T06:48:14.090Z,-5.52
2024-01-11T06:50:16.218Z,-5.50
2024-01-11T06:52:17.999Z,-5.48
2024-01-11T06:54:19.694Z,-5.46
2024-01-11T06:56:22.372Z,-5.44
2024-01-11T06:58:24.449Z,-5.45
2024-01-11T07:00:26.301Z,-5.44
2024-01-11T07:02:28.174Z,-5.45
2024-01-11T07:04:32.239Z,-5.45
2024-01-11T07:06:35.383Z,-5.43
2024-01-11T07:08:37.364Z,-5.39
2024-01-11T07:10:39.096Z,-5.40
2024-01-11T07:12:42.796Z,-5.41
2024-01-11T07:14:44.720Z,-5.41
2024-01-11T07:16:46.684Z,-5.35
2024-01-11T07:18:48.518Z,-5.32
2024-01-11T07:20:50.421Z,-5.29
2024-01-11T07:22:52.290Z,-5.27
2024-01-11T07:24:54.070Z,-5.28
2024-01-11T07:26:55.867Z,-5.29
2024-01-11T07:28:57.886Z,-5.27
2024-01-11T07:30:59.886Z,-5.26
2024-01-11T07:33:02.319Z,-5.23
2024-01-11T07:35:06.900Z,-5.24
2024-01-11T07:37:10.312Z,-5.21
2024-01-11T07:39:12.030Z,-5.18
2024-01-11T07:41:13.938Z,-5.19
2024-01-11T07:43:15.720Z,-5.19
2024-01-11T07:45:17.510Z,-5.20
2024-01-11T07:47:19.257Z,-5.15
2024-01-11T07:49:22.056Z,-5.16
2024-01-11T07:51:24.135Z,-5.16
2024-01-11T07:53:25.895Z,-5.12
2024-01-11T07:55:27.816Z,-5.06
2024-01-11T07:57:29.950Z,-4.99
2024-01-11T07:59:37.454Z,-4.90
2024-01-11T08:01:39.409Z,-4.88
2024-01-11T08:03:43.095Z,-4.85
2024-01-11T08:05:45.794Z,-4.81
2024-01-11T08:07:47.601Z,-4.77
2024-01-11T08:09:49.311Z,-4.75
2024-01-11T08:11:52.267Z,-4.73
2024-01-11T08:13:56.112Z,-4.73
2024-01-11T08:15:58.898Z,-4.70
2024-01-11T08:18:01.880Z,-4.67
2024-01-11T08:20:05.172Z,-4.67
2024-01-11T08:22:07.368Z,-4.64
2024-01-11T08:24:09.192Z,-4.63
2024-01-11T08:26:20.456Z,-4.59
2024-01-11T08:28:22.328Z,-4.58
2024-01-11T08:30:24.153Z,-4.53
2024-01-11T08:32:31.542Z,-4.51
2024-01-11T08:34:34.751Z,-4.50
2024-01-11T08:36:36.726Z,-4.48
2024-01-11T08:38:38.568Z,-4.45
2024-01-11T08:40:40.417Z,-4.43
2024-01-11T08:42:42.728Z,-4.41
2024-01-11T08:44:44.637Z,-4.38
2024-01-11T08:46:46.452Z,-4.32
2024-01-11T08:48:48.405Z,-4.28
2024-01-11T08:50:50.255Z,-4.23
2024-01-11T08:52:52.021Z,-4.21
2024-01-11T08:54:53.769Z,-4.13
2024-01-11T08:56:55.582Z,-4.09
2024-01-11T08:58:59.468Z,-4.04
2024-01-11T09:01:01.519Z,-4.04
2024-01-11T09:03:04.138Z,-4.01
2024-01-11T09:05:09.399Z,-4.00
2024-01-11T09:07:11.781Z,-3.97
2024-01-11T09:09:14.798Z,-3.92
2024-01-11T09:11:18.612Z,-3.90
2024-01-11T09:13:20.715Z,-3.89
2024-01-11T09:15:22.500Z,-3.86
2024-01-11T09:17:24.363Z,-3.82
2024-01-11T09:19:26.645Z,-3.79
2024-01-11T09:21:28.459Z,-3.76
2024-01-11T09:23:30.266Z,-3.75
2024-01-11T09:25:32.227Z,-3.71
2024-01-11T09:27:33.969Z,-3.72
2024-01-11T09:29:35.802Z,-3.65
2024-01-11T09:31:37.620Z,-3.61
2024-01-11T09:33:39.632Z,-3.58
2024-01-11T09:35:41.447Z,-3.52
2024-01-11T09:37:48.105Z,-3.55
2024-01-11T09:39:49.986Z,-3.53
2024-01-11T09:42:00.615Z,-3.50
2024-01-11T09:44:06.213Z,-3.46
2024-01-11T09:46:08.282Z,-3.44
2024-01-11T09:48:11.766Z,-3.39
2024-01-11T09:50:19.564Z,-3.35
2024-01-11T09:52:23.565Z,-3.35
2024-01-11T09:54:26.498Z,-3.29
2024-01-11T09:56:29.860Z,-3.27
2024-01-11T09:58:32.426Z,-3.26
2024-01-11T10:00:35.323Z,-3.21
2024-01-11T10:02:37.148Z,-3.15
2024-01-11T10:04:39.067Z,-3.11
2024-01-11T10:06:41.595Z,-3.09
2024-01-11T10:08:43.410Z,-3.03
2024-01-11T10:10:45.231Z,-2.99
2024-01-11T10:12:48.865Z,-2.93
2024-01-11T10:14:51.326Z,-2.90
2024-01-11T10:16:55.865Z,-2.83
2024-01-11T10:18:58.152Z,-2.79
2024-01-11T10:20:59.982Z,-2.73
2024-01-11T10:23:03.400Z,-2.72
2024-01-11T10:25:13.703Z,-2.65
2024-01-11T10:27:15.411Z,-2.64
2024-01-11T10:29:19.405Z,-2.58
2024-01-11T10:31:25.743Z,-2.55
2024-01-11T10:33:27.671Z,-2.48
2024-01-11T10:35:29.676Z,-2.41
2024-01-11T10:37:31.966Z,-2.34
2024-01-11T10:39:36.799Z,-2.29
2024-01-11T10:41:42.896Z,-2.25
2024-01-11T10:43:45.173Z,-2.25
2024-01-11T10:45:50.193Z,-2.26
2024-01-11T10:47:57.244Z,-2.21
2024-01-11T10:50:02.849Z,-2.20
2024-01-11T10:52:07.411Z,-2.15
2024-01-11T10:54:09.313Z,-2.13
2024-01-11T10:56:13.683Z,-2.07
2024-01-11T10:58:17.622Z,-2.00
2024-01-11T11:00:20.382Z,-1.95
2024-01-11T11:02:23.546Z,-1.90
2024-01-11T11:04:26.717Z,-1.84
2024-01-11T11:06:29.746Z,-1.80
2024-01-11T11:08:32.859Z,-1.77
2024-01-11T11:10:35.698Z,-1.75
2024-01-11T11:12:39.266Z,-1.71
2024-01-11T11:14:41.890Z,-1.67
2024-01-11T11:16:45.843Z,-1.63
2024-01-11T11:18:47.844Z,-1.60
2024-01-11T11:20:49.722Z,-1.58
2024-01-11T11:23:14.188Z,-1.55
2024-01-11T11:25:26.878Z,-1.50
2024-01-11T11:27:28.749Z,-1.48
2024-01-11T11:29:30.965Z,-1.45
2024-01-11T11:31:39.846Z,-1.44
2024-01-11T11:33:42.390Z,-1.40
2024-01-11T11:35:44.494Z,-1.38
2024-01-11T11:37:46.435Z,-1.36
2024-01-11T11:39:48.266Z,-1.33
2024-01-11T11:41:51.231Z,-1.29
2024-01-11T11:43:53.042Z,-1.25
2024-01-11T11:45:55.575Z,-1.20
2024-01-11T11:47:57.445Z,-1.16
2024-01-11T11:50:06.573Z,-1.13
2024-01-11T11:52:16.134Z,-1.10
2024-01-11T11:54:18.696Z,-1.08
2024-01-11T11:56:24.829Z,-1.07
2024-01-11T11:58:26.737Z,-1.08
2024-01-11T12:00:31.770Z,-1.07
2024-01-11T12:02:33.980Z,-1.07
2024-01-11T12:04:40.116Z,-1.07
2024-01-11T12:06:47.397Z,-1.05
2024-01-11T12:08:50.456Z,-1.03
2024-01-11T12:10:53.325Z,-1.02
2024-01-11T12:12:55.697Z,-1.00
2024-01-11T12:15:00.336Z,-0.97
2024-01-11T12:17:02.210Z,-0.96
2024-01-11T12:19:04.060Z,-0.92
2024-01-11T12:21:06.744Z,-0.91
2024-01-11T12:23:09.096Z,-0.89
2024-01-11T12:25:12.199Z,-0.86
2024-01-11T12:27:14.193Z,-0.85
2024-01-11T12:29:16.131Z,-0.86
2024-01-11T12:31:18.343Z,-0.82
2024-01-11T12:33:21.145Z,-0.82
2024-01-11T12:35:24.371Z,-0.81
2024-01-11T12:37:26.181Z,-0.80
2024-01-11T12:39:28.181Z,-0.79
2024-01-11T12:41:30.143Z,-0.77
2024-01-11T12:43:32.211Z,-0.74
2024-01-11T12:45:34.522Z,-0.72
2024-01-11T12:47:36.379Z,-0.71
2024-01-11T12:49:38.658Z,-0.70
2024-01-11T12:51:41.266Z,-0.65
2024-01-11T12:53:43.714Z,-0.64
2024-01-11T12:55:55.332Z,-0.61
2024-01-11T12:58:12.461Z,-0.60
2024-01-11T13:00:15.444Z,-0.57
2024-01-11T13:02:20.408Z,-0.56
2024-01-11T13:04:22.514Z,-0.52
2024-01-11T13:06:24.653Z,-0.52
2024-01-11T13:08:28.720Z,-0.52
2024-01-11T13:10:30.826Z,-0.49
2024-01-11T13:12:32.998Z,-0.45
2024-01-11T13:14:35.122Z,-0.43
2024-01-11T13:16:37.000Z,-0.43
2024-01-11T13:18:38.904Z,-0.39
2024-01-11T13:20:40.773Z,-0.37
2024-01-11T13:22:42.814Z,-0.36
2024-01-11T13:24:44.762Z,-0.36
2024-01-11T13:26:46.608Z,-0.33
2024-01-11T13:28:48.495Z,-0.30
2024-01-11T13:30:50.670Z,-0.31
2024-01-11T13:32:52.577Z,-0.30
2024-01-11T13:34:54.638Z,-0.29
2024-01-11T13:36:56.389Z,-0.29
2024-01-11T13:38:58.223Z,-0.28
2024-01-11T13:40:59.993Z,-0.26
2024-01-11T13:43:04.301Z,-0.25
2024-01-11T13:45:08.541Z,-0.23
2024-01-11T13:47:10.353Z,-0.19
2024-01-11T13:49:16.051Z,-0.17
2024-01-11T13:51:18.034Z,-0.17
2024-01-11T13:53:19.809Z,-0.14
2024-01-11T13:55:23.136Z,-0.12
2024-01-11T13:57:25.045Z,-0.11
2024-01-11T13:59:27.354Z,-0.10
2024-01-11T14:01:29.075Z,-0.08
2024-01-11T14:03:30.852Z,-0.07
2024-01-11T14:05:32.754Z,-0.05
2024-01-11T14:07:35.797Z,-0.03
2024-01-11T14:09:37.543Z,-0.03
2024-01-11T14:11:39.336Z,-0.02
2024-01-11T14:13:41.687Z,0.01
2024-01-11T14:15:43.674Z,0.01
2024-01-11T14:17:45.725Z,0.03
2024-01-11T14:19:47.660Z,0.05
2024-01-11T14:21:50.297Z,0.06
2024-01-11T14:23:52.939Z,0.07
2024-01-11T14:25:56.831Z,0.09
2024-01-11T14:27:58.662Z,0.08
2024-01-11T14:30:00.374Z,0.12
2024-01-11T14:32:02.287Z,0.13
2024-01-11T14:34:04.271Z,0.15
2024-01-11T14:36:06.509Z,0.14
2024-01-11T14:38:08.416Z,0.15
2024-01-11T14:40:13.697Z,0.15
2024-01-11T14:42:15.680Z,0.15
2024-01-11T14:44:17.417Z,0.17
2024-01-11T14:46:19.136Z,0.19
2024-01-11T14:48:21.399Z,0.21
2024-01-11T14:50:23.385Z,0.21
2024-01-11T14:52:25.230Z,0.21
2024-01-11T14:54:26.993Z,0.20
2024-01-11T14:56:28.844Z,0.21
2024-01-11T14:58:30.596Z,0.21
2024-01-11T15:00:32.524Z,0.20
2024-01-11T15:02:35.061Z,0.22
2024-01-11T15:04:37.485Z,0.22
2024-01-11T15:06:40.113Z,0.22
2024-01-11T15:08:42.081Z,0.25
2024-01-11T15:10:44.151Z,0.26
2024-01-11T15:12:45.887Z,0.27
2024-01-11T15:14:47.927Z,0.27
2024-01-11T15:16:49.955Z,0.28
2024-01-11T15:18:51.861Z,0.29
2024-01-11T15:20:53.883Z,0.29
2024-01-11T15:22:55.792Z,0.29
2024-01-11T15:24:57.687Z,0.29
2024-01-11T15:26:59.435Z,0.29
2024-01-11T15:29:01.431Z,0.28
2024-01-11T15:31:03.596Z,0.28
2024-01-11T15:33:05.855Z,0.28
2024-01-11T15:35:09.174Z,0.29
2024-01-11T15:37:11.498Z,0.28
2024-01-11T15:39:25.045Z,0.30
2024-01-11T15:41:30.018Z,0.31
2024-01-11T15:43:32.938Z,0.33
2024-01-11T15:45:36.251Z,0.32
2024-01-11T15:47:39.564Z,0.32
2024-01-11T15:49:41.540Z,0.32
2024-01-11T15:51:43.340Z,0.35
2024-01-11T15:53:45.182Z,0.38
2024-01-11T15:55:47.002Z,0.39
2024-01-11T15:57:48.985Z,0.37
2024-01-11T15:59:50.732Z,0.37
2024-01-11T16:02:03.493Z,0.38
2024-01-11T16:04:09.409Z,0.36
2024-01-11T16:06:11.303Z,0.38
2024-01-11T16:08:13.221Z,0.39
2024-01-11T16:10:15.018Z,0.40
2024-01-11T16:12:17.182Z,0.40
2024-01-11T16:14:19.009Z,0.41
2024-01-11T16:16:20.768Z,0.42
2024-01-11T16:18:24.645Z,0.41
2024-01-11T16:20:26.519Z,0.41
2024-01-11T16:22:28.440Z,0.40
2024-01-11T16:24:30.666Z,0.39
2024-01-11T16:26:32.519Z,0.38
2024-01-11T16:28:34.307Z,0.41
2024-01-11T16:30:36.175Z,0.41
2024-01-11T16:32:38.054Z,0.41
2024-01-11T16:34:40.433Z,0.40
2024-01-11T16:36:42.248Z,0.40
2024-01-11T16:38:44.596Z,0.41
2024-01-11T16:40:46.440Z,0.40
2024-01-11T16:42:48.808Z,0.42
2024-01-11T16:44:51.319Z,0.45
2024-01-11T16:46:54.007Z,0.45
2024-01-11T16:48:56.087Z,0.46
2024-01-11T16:50:58.071Z,0.45
2024-01-11T16:53:00.110Z,0.44
2024-01-11T16:55:01.916Z,0.45
2024-01-11T16:57:05.568Z,0.45
2024-01-11T16:59:07.530Z,0.45
2024-01-11T17:01:09.944Z,0.42
2024-01-11T17:03:11.970Z,0.43
2024-01-11T17:05:14.054Z,0.43
2024-01-11T17:07:15.935Z,0.45
2024-01-11T17:09:17.641Z,0.47
2024-01-11T17:11:19.457Z,0.47
2024-01-11T17:13:24.250Z,0.47
2024-01-11T17:15:27.992Z,0.46
2024-01-11T17:17:30.032Z,0.47
2024-01-11T17:19:31.873Z,0.47
2024-01-11T17:21:33.724Z,0.46
2024-01-11T17:23:35.561Z,0.47
2024-01-11T17:25:37.289Z,0.48
2024-01-11T17:27:40.605Z,0.48
2024-01-11T17:29:43.518Z,0.49
2024-01-11T17:31:46.205Z,0.50
2024-01-11T17:33:48.542Z,0.48
2024-01-11T17:35:50.628Z,0.48
2024-01-11T17:37:52.402Z,0.49
2024-01-11T17:39:54.592Z,0.50
2024-01-11T17:42:00.803Z,0.50
2024-01-11T17:44:02.672Z,0.52
2024-01-11T17:46:05.100Z,0.51
2024-01-11T17:48:07.442Z,0.51
2024-01-11T17:50:09.632Z,0.50
2024-01-11T17:52:11.419Z,0.49
2024-01-11T17:54:13.313Z,0.50
2024-01-11T17:56:16.355Z,0.48
2024-01-11T17:58:18.928Z,0.46
2024-01-11T18:00:22.039Z,0.46
2024-01-11T18:02:23.830Z,0.44
2024-01-11T18:04:25.674Z,0.45
2024-01-11T18:06:27.611Z,0.46
2024-01-11T18:08:29.869Z,0.46
2024-01-11T18:10:38.750Z,0.48
2024-01-11T18:12:40.935Z,0.45
2024-01-11T18:14:42.865Z,0.42
2024-01-11T18:16:44.734Z,0.43
2024-01-11T18:18:49.723Z,0.43
2024-01-11T18:20:51.796Z,0.42
2024-01-11T18:22:54.050Z,0.38
2024-01-11T18:24:55.793Z,0.36
2024-01-11T18:26:57.587Z,0.37
2024-01-11T18:28:59.549Z,0.38
2024-01-11T18:31:01.397Z,0.35
2024-01-11T18:33:04.290Z,0.34
2024-01-11T18:35:09.228Z,0.33
2024-01-11T18:37:11.056Z,0.33
2024-01-11T18:39:17.121Z,0.31
2024-01-11T18:41:19.328Z,0.28
2024-01-11T18:43:21.189Z,0.22
2024-01-11T18:45:23.253Z,0.17
2024-01-11T18:47:25.493Z,0.14
2024-01-11T18:49:27.350Z,0.12
2024-01-11T18:51:30.464Z,0.09
2024-01-11T18:53:32.774Z,0.09
2024-01-11T18:55:34.579Z,0.08
2024-01-11T18:57:39.691Z,0.08
2024-01-11T18:59:41.474Z,0.06
2024-01-11T19:01:48.154Z,0.04
2024-01-11T19:03:49.922Z,0.00
2024-01-11T19:05:51.988Z,0.02
2024-01-11T19:07:54.046Z,-0.01
2024-01-11T19:09:55.790Z,-0.03
2024-01-11T19:12:00.005Z,-0.05
2024-01-11T19:14:01.811Z,-0.08
2024-01-11T19:16:03.883Z,-0.10
2024-01-11T19:18:06.278Z,-0.15
2024-01-11T19:20:08.795Z,-0.19
2024-01-11T19:22:10.745Z,-0.23
2024-01-11T19:24:12.706Z,-0.28
2024-01-11T19:26:14.529Z,-0.32
2024-01-11T19:28:16.425Z,-0.34
2024-01-11T19:30:18.457Z,-0.36
2024-01-11T19:32:20.268Z,-0.36
2024-01-11T19:34:22.121Z,-0.37
2024-01-11T19:36:26.061Z,-0.37
2024-01-11T19:38:27.957Z,-0.36
2024-01-11T19:40:29.914Z,-0.36
2024-01-11T19:42:31.821Z,-0.35
2024-01-11T19:44:33.671Z,-0.34
2024-01-11T19:46:35.692Z,-0.35
2024-01-11T19:48:37.569Z,-0.35
2024-01-11T19:50:39.542Z,-0.36
2024-01-11T19:52:41.325Z,-0.38
2024-01-11T19:54:43.247Z,-0.43
2024-01-11T19:56:45.270Z,-0.39
2024-01-11T19:58:48.529Z,-0.38
2024-01-11T20:00:51.476Z,-0.35
2024-01-11T20:02:53.460Z,-0.34
2024-01-11T20:04:56.763Z,-0.34
2024-01-11T20:06:58.562Z,-0.34
2024-01-11T20:09:01.379Z,-0.36
2024-01-11T20:11:04.124Z,-0.37
2024-01-11T20:13:06.140Z,-0.36
2024-01-11T20:15:10.516Z,-0.35
2024-01-11T20:17:12.574Z,-0.39
2024-01-11T20:19:14.532Z,-0.42
2024-01-11T20:21:16.422Z,-0.43
2024-01-11T20:23:18.497Z,-0.45
2024-01-11T20:25:20.310Z,-0.48
2024-01-11T20:27:23.523Z,-0.50
2024-01-11T20:29:27.586Z,-0.51
2024-01-11T20:31:30.538Z,-0.54
2024-01-11T20:33:32.867Z,-0.55
2024-01-11T20:35:35.163Z,-0.55
2024-01-11T20:37:41.551Z,-0.58
2024-01-11T20:39:43.355Z,-0.59
2024-01-11T20:41:46.163Z,-0.58
2024-01-11T20:43:50.239Z,-0.60
2024-01-11T20:45:53.098Z,-0.58
2024-01-11T20:47:55.053Z,-0.60
2024-01-11T20:49:56.958Z,-0.60
2024-01-11T20:52:00.473Z,-0.61
2024-01-11T20:54:02.496Z,-0.59
2024-01-11T20:56:04.590Z,-0.59
2024-01-11T20:58:10.750Z,-0.58
2024-01-11T21:00:13.186Z,-0.58
2024-01-11T21:02:14.954Z,-0.60
2024-01-11T21:04:16.787Z,-0.62
2024-01-11T21:06:18.570Z,-0.66
2024-01-11T21:08:21.351Z,-0.68
2024-01-11T21:10:25.664Z,-0.70
2024-01-11T21:12:27.379Z,-0.71
2024-01-11T21:14:29.916Z,-0.73
2024-01-11T21:16:31.760Z,-0.75
2024-01-11T21:18:34.147Z,-0.75
2024-01-11T21:20:35.982Z,-0.76
2024-01-11T21:22:37.772Z,-0.75
2024-01-11T21:24:39.531Z,-0.76
2024-01-11T21:26:42.957Z,-0.81
2024-01-11T21:28:44.848Z,-0.77
2024-01-11T21:30:46.694Z,-0.75
2024-01-11T21:32:48.950Z,-0.79
2024-01-11T21:34:50.840Z,-0.80
2024-01-11T21:36:52.699Z,-0.80
2024-01-11T21:38:56.722Z,-0.82
2024-01-11T21:40:58.727Z,-0.83
2024-01-11T21:43:00.532Z,-0.80
2024-01-11T21:45:02.327Z,-0.82
2024-01-11T21:47:04.336Z,-0.77
2024-01-11T21:49:06.519Z,-0.77
2024-01-11T21:51:08.822Z,-0.76
2024-01-11T21:53:10.656Z,-0.77
2024-01-11T21:55:12.494Z,-0.75
2024-01-11T21:57:14.240Z,-0.76
2024-01-11T21:59:16.020Z,-0.81
2024-01-11T22:01:18.026Z,-0.86
2024-01-11T22:03:21.589Z,-0.90
2024-01-11T22:05:23.361Z,-0.94
2024-01-11T22:07:25.222Z,-1.00
2024-01-11T22:09:26.922Z,-1.04
2024-01-11T22:11:30.996Z,-1.08
2024-01-11T22:13:32.777Z,-1.11
2024-01-11T22:15:34.532Z,-1.08
2024-01-11T22:17:36.275Z,-1.11
2024-01-11T22:19:38.244Z,-1.10
2024-01-11T22:21:43.462Z,-1.03
2024-01-11T22:23:45.203Z,-1.05
2024-01-11T22:25:46.914Z,-1.04
2024-01-11T22:27:49.009Z,-1.02
2024-01-11T22:29:50.827Z,-1.05
2024-01-11T22:31:52.881Z,-1.07
2024-01-11T22:33:54.778Z,-1.08
2024-01-11T22:35:56.671Z,-1.07
2024-01-11T22:37:58.420Z,-1.08
2024-01-11T22:40:00.340Z,-1.09
2024-01-11T22:42:04.270Z,-1.14
2024-01-11T22:44:06.885Z,-1.15
2024-01-11T22:46:08.620Z,-1.15
2024-01-11T22:48:10.428Z,-1.14
2024-01-11T22:50:12.912Z,-1.17
2024-01-11T22:52:14.742Z,-1.12
2024-01-11T22:54:16.483Z,-1.12
2024-01-11T22:56:18.246Z,-1.11
2024-01-11T22:58:20.013Z,-1.16
2024-01-11T23:00:22.566Z,-1.17
2024-01-11T23:02:24.910Z,-1.21
2024-01-11T23:04:26.633Z,-1.23
2024-01-11T23:06:28.659Z,-1.26
2024-01-11T23:08:30.572Z,-1.28
2024-01-11T23:10:32.356Z,-1.29
2024-01-11T23:12:34.218Z,-1.31
2024-01-11T23:14:35.970Z,-1.32
2024-01-11T23:16:37.819Z,-1.31
2024-01-11T23:18:40.025Z,-1.35
2024-01-11T23:20:41.928Z,-1.34
2024-01-11T23:22:43.734Z,-1.35
2024-01-11T23:24:45.488Z,-1.34
2024-01-11T23:26:47.213Z,-1.33
2024-01-11T23:28:48.976Z,-1.34
2024-01-11T23:30:50.876Z,-1.33
2024-01-11T23:32:52.726Z,-1.30
2024-01-11T23:34:54.637Z,-1.31
2024-01-11T23:36:56.513Z,-1.31
2024-01-11T23:38:58.370Z,-1.31
2024-01-11T23:41:00.160Z,-1.31
2024-01-11T23:43:02.705Z,-1.29
2024-01-11T23:45:06.154Z,-1.28
2024-01-11T23:47:09.076Z,-1.28
2024-01-11T23:49:11.044Z,-1.27
2024-01-11T23:51:12.912Z,-1.25
2024-01-11T23:53:14.816Z,-1.21
2024-01-11T23:55:16.541Z,-1.18
2024-01-11T23:57:18.465Z,-1.15
2024-01-11T23:59:20.644Z,-1.12
